Jefferson, Oregon
Current Conditions -  °F | °C
As of 2:56 PM on Friday 28 Nov 2014 (Local Time) from KSLE Reporting Station
Broken Clouds Broken Clouds  
Wind Chill: 56°   Ceiling: 3500
Heat Index: 56°   Visibility: 10mi
Dew Point: 52°   Wind: 17mph
Humidity: 87%   Direction: 180°S
Pressure: 29.51"   Gusts: 26mph
Location:  44.72°N, 123.01°W
Report Text: KSLE 282256Z 18015G23KT 10SM SCT012 BKN035 BKN043 13/11 A2951 RMK AO2 PK WND 20027/2157 RAE46 SLP993 P0004 T01330111
Loading
Personal Weather Stations






























Interactive Weather Map New forecast layout! Learn more

10-Day Weather Forecast

Advertisements
Track Severe Weather on mobile